WetterOnline ( http://www.wetteronline.de )

Wetter aktuell Palermo

Aktuelles Wetter: Trapani/Birgi (14m)

6-stündlich | Neueste Meldungen
Ortszeit Temperatur Wetter
So, 25.02. 13:00 12.2° C leicht bewölkt
So, 25.02. 7:00 8.8° C leichter Regen
So, 25.02. 1:00 9.4° C leichter Regen
Sa, 24.02. 19:00 10.2° C leicht bewölkt
Sa, 24.02. 13:00 14.2° C leicht bewölkt
Sa, 24.02. 7:00 10.0° C wolkig
Sa, 24.02. 1:00 10.0° C leicht bewölkt
Fr, 23.02. 19:00 10.2° C bewölkt
Ortszeit Temperatur Wetter
So, 25.02. 14:00 13.0° C wolkig
So, 25.02. 13:55 13° C leicht bewölkt
So, 25.02. 13:00 12.2° C leicht bewölkt
So, 25.02. 12:55 12° C leicht bewölkt
So, 25.02. 12:00 11.8° C wolkig, nach Regen
So, 25.02. 11:55 12° C leicht bewölkt
So, 25.02. 11:00 11.0° C leichter Regen
So, 25.02. 10:55 11° C leichter Regen
So, 25.02. 10:00 9.4° C leichter Regen
Ortszeit Relative Feuchte Sichtweite
So, 25.02. 13:00 69% 20 km
So, 25.02. 7:00 86% 12 km
So, 25.02. 1:00 93% 12 km
Sa, 24.02. 19:00 88% 16 km
Sa, 24.02. 13:00 77% 22 km
Sa, 24.02. 7:00 75% 15 km
Sa, 24.02. 1:00 82% 12 km
Fr, 23.02. 19:00 82% 12 km
Ortszeit Relative Feuchte Sichtweite
So, 25.02. 14:00 77% 20 km
So, 25.02. 13:55 77% >10 km
So, 25.02. 13:00 69% 20 km
So, 25.02. 12:55 71% >10 km
So, 25.02. 12:00 67% 16 km
So, 25.02. 11:55 67% >10 km
So, 25.02. 11:00 84% 12 km
So, 25.02. 10:55 82% >10 km
So, 25.02. 10:00 84% 10 km
Ortszeit Niederschlagsmenge Niederschlagsart
So, 25.02. 13:00 5 l/m2 in 6 Std. Regen
So, 25.02. 7:00 3 l/m2 in 12 Std. Regen
So, 25.02. 1:00 0.2 l/m2 in 6 Std. Regen
Sa, 24.02. 19:00 0.0 l/m2 in 12 Std. -
Sa, 24.02. 13:00 0.0 l/m2 in 6 Std. -
Sa, 24.02. 7:00 0.4 l/m2 in 12 Std. -
Sa, 24.02. 1:00 0.4 l/m2 in 6 Std. Regen
Fr, 23.02. 19:00 10 l/m2 in 12 Std. Regen
Ortszeit Niederschlagsmenge Niederschlagsart
So, 25.02. 14:00 keine Meldung -
So, 25.02. 13:55 keine Meldung -
So, 25.02. 13:00 keine Meldung -
So, 25.02. 12:55 keine Meldung -
So, 25.02. 12:00 keine Meldung -
So, 25.02. 11:55 keine Meldung -
So, 25.02. 11:00 keine Meldung -
So, 25.02. 10:55 keine Meldung -
So, 25.02. 10:00 keine Meldung -
Ortszeit Stärke Spitze Richtung
km/h Bft. km/h Grad Sektor
So, 25.02. 13:00 15 3 - 330° NW
So, 25.02. 7:00 7 2 - 10° N
So, 25.02. 1:00 11 2 - 110° O
Sa, 24.02. 19:00 9 2 - 140° SO
Sa, 24.02. 13:00 15 3 - 200° S
Sa, 24.02. 7:00 26 4 - 260° W
Sa, 24.02. 1:00 33 5 - 280° W
Fr, 23.02. 19:00 20 4 - 310° NW
Ortszeit Stärke Spitze Richtung
km/h Bft. km/h Grad Sektor
So, 25.02. 14:00 20 4 - 300° NW
So, 25.02. 13:55 20 4 - 300° NW
So, 25.02. 13:00 15 3 - 330° NW
So, 25.02. 12:55 15 3 - 330° NW
So, 25.02. 12:00 11 2 - 340° N
So, 25.02. 11:55 11 2 - 340° N
So, 25.02. 11:00 6 1 - uml. uml.
So, 25.02. 10:55 6 1 - uml. uml.
So, 25.02. 10:00 11 2 - 330° NW
Ortszeit Untergrenze Bedeckung Gattung
total tief tief mittel hoch
So, 25.02. 13:00 540 m 4/8 4/8 Cu - -
So, 25.02. 7:00 750 m 8/8 4/8 Cu Ac -
So, 25.02. 1:00 750 m 8/8 5/8 Cu Ac -
Sa, 24.02. 19:00 750 m 5/8 2/8 Cu As Ci
Sa, 24.02. 13:00 750 m 3/8 3/8 Cu - -
Sa, 24.02. 7:00 690 m 5/8 5/8 Cu - -
Sa, 24.02. 1:00 900 m 2/8 2/8 Sc - -
Fr, 23.02. 19:00 390 m 7/8 5/8 Cu Ac -
Ortszeit Bedeckungsgrad in Achtel und Wolkenuntergrenze
So, 25.02. 14:00 3(540m) 4(1800m)
So, 25.02. 13:55 3-4(540m)
So, 25.02. 13:00 4(540m)
So, 25.02. 12:55 3-4(540m)
So, 25.02. 12:00 3(540m) 6(2100m)
So, 25.02. 11:55 3-4(540m)
So, 25.02. 11:00 3(600m) 3(990m) 5(1800m)
So, 25.02. 10:55 3-4(600m) 3-4(990m)
So, 25.02. 10:00 3(600m) 3(900m) 6(1800m)
Ortszeit Luftdruck NN (hPa) Tendenz (hPa in 3 Std.)
So, 25.02. 13:00 1005 - 1,3
So, 25.02. 7:00 1006 - 0,4
So, 25.02. 1:00 1008 - 1,0
Sa, 24.02. 19:00 1008 + 0,2
Sa, 24.02. 13:00 1009 + 0,4
Sa, 24.02. 7:00 1006 + 1,9
Sa, 24.02. 1:00 1003 + 0,4
Fr, 23.02. 19:00 1000 + 1,7
Ortszeit Luftdruck NN (hPa) Tendenz (hPa in 3 Std.)
So, 25.02. 14:00 1005 - 1,2
So, 25.02. 13:55 1004 keine Meldung
So, 25.02. 13:00 1005 - 1,3
So, 25.02. 12:55 1005 keine Meldung
So, 25.02. 12:00 1006 - 0,8
So, 25.02. 11:55 1005 keine Meldung
So, 25.02. 11:00 1006 - 0,1
So, 25.02. 10:55 1006 keine Meldung
So, 25.02. 10:00 1006 + 0,5
Ortszeit Schneehöhe (cm)
So, 25.02. 13:00 -
So, 25.02. 7:00 0
So, 25.02. 1:00 -
Sa, 24.02. 19:00 -
Sa, 24.02. 13:00 -
Sa, 24.02. 7:00 0
Sa, 24.02. 1:00 -
Fr, 23.02. 19:00 -
Ortszeit Schneehöhe (cm)
So, 25.02. 14:00 -
So, 25.02. 13:55 -
So, 25.02. 13:00 -
So, 25.02. 12:55 -
So, 25.02. 12:00 -
So, 25.02. 11:55 -
So, 25.02. 11:00 -
So, 25.02. 10:55 -
So, 25.02. 10:00 -
Link zu dieser Seite / Seite empfehlen

Das Wetter in ...